Terminal Aerodrome Forecast
Issued by NWS

Home | Current Version | Previous Version | Text Only | Print | Product List | Glossary Off
Versions: 1 2 3 4 5 6 7 8 9 10 11 12 13 14 15 16 17 18 19 20 21 22 23 24 25

000
FTUS43 KABR 230700 AAB
TAFATY
TAF AMD
KATY 230746Z 2308/2406 06008KT 6SM BR OVC006
      TEMPO 2308/2312 3SM -SN
     FM232100 34017G26KT 2SM -SN BLSN OVC005
     FM240100 34015KT P6SM OVC010=

USA.gov is the U.S. government's official web portal to all federal, state and local government web resources and services.